createdAt,value
2023-05-12T00:10:12.007Z,7.13
2023-05-12T00:25:13.980Z,9.10
2023-05-12T00:40:15.936Z,7.05
2023-05-12T00:55:18.227Z,7.18
2023-05-12T01:10:21.906Z,9.15
2023-05-12T01:25:25.012Z,8.93
2023-05-12T01:40:27.048Z,6.82
2023-05-12T01:55:29.046Z,5.88
2023-05-12T02:10:31.142Z,8.38
2023-05-12T02:25:33.311Z,5.68
2023-05-12T02:40:35.320Z,6.97
2023-05-12T02:55:37.325Z,9.02
2023-05-12T03:10:39.241Z,7.05
2023-05-12T03:25:41.301Z,9.52
2023-05-12T03:40:43.301Z,5.45
2023-05-12T03:55:45.299Z,10.00
2023-05-12T04:10:47.245Z,5.90
2023-05-12T04:25:49.285Z,6.30
2023-05-12T04:40:51.237Z,7.70
2023-05-12T04:55:53.302Z,5.43
2023-05-12T05:10:55.377Z,5.70
2023-05-12T05:25:57.447Z,8.65
2023-05-12T05:40:59.558Z,4.78
2023-05-12T05:56:01.725Z,9.30
2023-05-12T06:11:03.906Z,4.32
2023-05-12T06:26:08.004Z,6.97
2023-05-12T06:41:10.093Z,5.78
2023-05-12T06:56:17.048Z,7.03
2023-05-12T07:11:20.443Z,7.60
2023-05-12T07:26:24.464Z,5.28
2023-05-12T07:41:26.515Z,5.25
2023-05-12T07:56:28.556Z,9.40
2023-05-12T08:11:30.680Z,13.13
2023-05-12T08:26:32.667Z,3.45
2023-05-12T08:41:42.449Z,6.78
2023-05-12T09:11:53.571Z,5.80
2023-05-12T09:26:56.269Z,2.33
2023-05-12T09:41:58.371Z,5.20
2023-05-12T09:57:05.390Z,4.95
2023-05-12T10:12:08.564Z,5.38
2023-05-12T10:27:10.878Z,7.97
2023-05-12T10:42:17.908Z,5.40
2023-05-12T10:57:21.506Z,7.78
2023-05-12T11:12:25.243Z,6.32
2023-05-12T11:27:27.421Z,7.32
2023-05-12T11:42:29.450Z,2.80
2023-05-12T11:57:33.132Z,5.18
2023-05-12T12:12:35.074Z,4.47
2023-05-12T12:27:37.742Z,10.75
2023-05-12T12:42:41.509Z,3.78
2023-05-12T12:57:43.507Z,3.83
2023-05-12T13:12:45.460Z,6.40
2023-05-12T13:27:47.541Z,5.35
2023-05-12T13:42:49.592Z,5.57
2023-05-12T13:57:51.651Z,2.53
2023-05-12T14:12:53.652Z,2.83
2023-05-12T14:27:55.896Z,5.57
2023-05-12T14:42:57.977Z,3.72
2023-05-12T14:58:00.038Z,7.00
2023-05-12T15:13:02.063Z,5.93
2023-05-12T15:28:04.109Z,3.17
2023-05-12T15:43:06.101Z,6.22
2023-05-12T15:58:09.294Z,6.35
2023-05-12T16:13:11.313Z,3.83
2023-05-12T16:28:13.448Z,4.18
2023-05-12T16:43:15.550Z,4.18
2023-05-12T16:58:17.573Z,4.40
2023-05-12T17:13:19.712Z,5.18
2023-05-12T17:28:22.362Z,3.00
2023-05-12T17:43:24.564Z,4.80
2023-05-12T17:58:26.916Z,7.00
2023-05-12T18:13:28.928Z,16.20
2023-05-12T18:28:30.872Z,13.05
2023-05-12T18:43:32.938Z,6.38
2023-05-12T18:58:34.958Z,5.60
2023-05-12T19:13:41.097Z,9.27
2023-05-12T19:28:43.208Z,9.82
2023-05-12T19:43:45.340Z,14.73
2023-05-12T19:58:48.171Z,16.90
2023-05-12T20:13:50.211Z,22.40
2023-05-12T20:28:52.239Z,23.00
2023-05-12T20:43:54.545Z,25.27
2023-05-12T20:58:57.838Z,25.00
2023-05-12T21:13:59.994Z,21.88
2023-05-12T21:29:04.701Z,22.42
2023-05-12T21:44:07.359Z,28.75
2023-05-12T21:59:10.149Z,24.13
2023-05-12T22:14:12.131Z,24.08
2023-05-12T22:29:14.362Z,29.45
2023-05-12T22:44:16.345Z,31.58
2023-05-12T22:59:18.313Z,30.73
2023-05-12T23:14:20.349Z,35.65
2023-05-12T23:29:22.323Z,25.90
2023-05-12T23:44:24.318Z,31.20
2023-05-12T23:59:26.264Z,29.08
